This demonstration page uses our WeatherBlox Daily Observations layout. Learn more.

41.55636, -103.73856

Hourly Observations for August 27, 2019

Temp ( °F °C ) Dew Point ( °F °C ) Humidity (%) Winds ( mph kmh ) Pressure ( in mb ) Visibility ( mi km ) Precip ( " mm )
12:58 am 00:58 Clear 68 20.1 41 5.1 38 38 NNE 8 13 30.03 1017 10 16.0934 0 0
1:58 am 01:58 Clear 62 16.8 43 6 49 49 ENE 6 9 30.06 1018 10 16.0934 0 0
2:58 am 02:58 Clear 59 15.2 43 6.2 55 55 ESE 7 11 30.1 1019 10 16.0934 0 0
3:58 am 03:58 Clear 59 14.8 42 5.6 54 54 E 6 9 30.1 1019 10 16.0934 0 0
4:58 am 04:58 Clear 54 12 44 6.5 69 69 SW 3 6 30.11 1020 10 16.0934 0 0
5:58 am 05:58 Clear 55 12.5 42 5.6 63 63 Calm 30.09 1019 10 16.0934 0 0
6:58 am 06:58 Mostly Cloudy 51 10.8 44 6.8 77 77 SW 5 7 30.11 1020 10 16.0934 0 0
7:58 am 07:58 Mostly Cloudy 52 11.2 46 8 81 81 SW 5 7 30.1 1019 10 16.0934 0 0
8:58 am 08:58 Mostly Cloudy 53 11.4 48 8.9 85 85 SW 5 7 30.1 1019 10 16.0934 0 0
9:58 am 09:58 Mostly Cloudy 55 12.5 46 7.9 74 74 WSW 5 7 30.09 1019 10 16.0934 0 0
10:58 am 10:58 Mostly Cloudy 55 12.5 44 6.9 69 69 WNW 6 9 30.09 1019 10 16.0934 0 0
11:58 am 11:58 Mostly Cloudy 53 11.9 45 7.2 73 73 Calm 30.13 1020 10 16.0934 0 0
12:58 pm 12:58 Mostly Cloudy 53 11.9 45 7.3 74 74 Calm 30.16 1021 10 16.0934 0 0
1:58 pm 13:58 Mostly Cloudy 55 12.9 43 6.1 64 64 N 7 11 30.2 1023 10 16.0934 0 0
2:58 pm 14:58 Mostly Cloudy 58 14.7 41 5.1 53 53 N 8 13 30.21 1023 10 16.0934 0 0
3:58 pm 15:58 Mostly Sunny 60 15.6 40 4.2 47 47 NNE 13 20 30.22 1023 10 16.0934 0 0
4:58 pm 16:58 Sunny 63 17.2 38 3.5 40 40 NNE 10 17 30.21 1023 10 16.0934 0 0
5:58 pm 17:58 Sunny 65 18.1 38 3.1 37 37 N 6 9 30.2 1023 10 16.0934 0 0
6:58 pm 18:58 Sunny 67 19.7 38 3.5 34 34 NW 7 11 30.18 1022 10 16.0934 0 0
7:58 pm 19:58 Sunny 67 19.5 40 4.7 38 38 Calm 30.16 1021 10 16.0934 0 0
8:58 pm 20:58 Sunny 70 21.1 41 4.8 35 35 NNW 7 11 30.13 1020 10 16.0934 0 0
9:58 pm 21:58 Sunny 71 21.8 40 4.2 32 32 N 3 6 30.11 1020 10 16.0934 0 0
10:58 pm 22:58 Sunny 72 22.2 41 5 33 33 NE 7 11 30.1 1019 10 16.0934 0 0
11:58 pm 23:58 Sunny 70 21.2 40 4.3 33 33 Calm 30.1 1019 10 16.0934 0 0

Powered by AerisWeather